createdAt,value
2022-12-23T00:00:20.953Z,17.63
2022-12-23T00:05:43.337Z,17.47
2022-12-23T00:11:10.297Z,15.33
2022-12-23T00:16:36.403Z,10.77
2022-12-23T00:21:59.063Z,12.20
2022-12-23T00:27:21.248Z,14.40
2022-12-23T00:32:44.776Z,17.37
2022-12-23T00:38:07.219Z,18.60
2022-12-23T00:43:29.383Z,14.87
2022-12-23T00:49:27.055Z,17.77
2022-12-23T00:54:49.239Z,19.57
2022-12-23T01:00:12.130Z,19.07
2022-12-23T01:05:39.113Z,20.57
2022-12-23T01:11:07.103Z,22.67
2022-12-23T01:16:29.332Z,18.27
2022-12-23T01:21:52.014Z,15.20
2022-12-23T01:27:14.496Z,19.87
2022-12-23T01:32:37.278Z,16.53
2022-12-23T01:37:59.746Z,17.53
2022-12-23T01:43:22.799Z,18.73
2022-12-23T01:48:52.177Z,16.07
2022-12-23T01:54:14.795Z,16.57
2022-12-23T01:59:56.051Z,17.80
2022-12-23T02:05:18.954Z,13.53
2022-12-23T02:11:13.420Z,15.23
2022-12-23T02:16:46.051Z,17.03
2022-12-23T02:22:46.037Z,15.40
2022-12-23T02:28:53.384Z,14.30
2022-12-23T02:34:18.243Z,12.83
2022-12-23T02:39:46.107Z,19.07
2022-12-23T02:45:12.107Z,18.10
2022-12-23T02:50:38.251Z,13.97
2022-12-23T02:56:02.647Z,10.43
2022-12-23T03:01:27.557Z,13.90
2022-12-23T03:06:53.521Z,11.50
2022-12-23T03:12:28.549Z,10.70
2022-12-23T03:18:22.558Z,14.83
2022-12-23T03:23:55.890Z,12.63
2022-12-23T03:29:50.608Z,13.60
2022-12-23T03:35:17.868Z,17.83
2022-12-23T03:40:48.072Z,15.13
2022-12-23T03:46:18.198Z,14.13
2022-12-23T03:52:20.550Z,15.57
2022-12-23T03:57:55.117Z,15.17
2022-12-23T04:03:36.159Z,15.27
2022-12-23T04:08:59.332Z,16.60
2022-12-23T04:14:23.334Z,14.30
2022-12-23T04:19:46.543Z,22.17
2022-12-23T04:25:10.604Z,17.97
2022-12-23T04:30:34.614Z,17.20
2022-12-23T04:36:00.153Z,17.90
2022-12-23T04:41:24.246Z,18.43
2022-12-23T04:46:46.868Z,13.53
2022-12-23T04:52:09.797Z,16.23
2022-12-23T04:57:32.157Z,16.70
2022-12-23T05:02:54.805Z,17.93
2022-12-23T05:08:17.372Z,20.33
2022-12-23T05:13:39.798Z,19.77
2022-12-23T05:19:01.874Z,17.83
2022-12-23T05:24:24.425Z,17.23
2022-12-23T05:29:46.564Z,18.47
2022-12-23T05:35:09.311Z,16.77
2022-12-23T05:40:32.806Z,20.90
2022-12-23T05:45:56.087Z,17.83
2022-12-23T05:51:19.406Z,18.33
2022-12-23T05:56:41.811Z,19.90
2022-12-23T06:02:04.505Z,18.53
2022-12-23T06:07:26.941Z,17.47
2022-12-23T06:12:49.440Z,12.80
2022-12-23T06:18:11.780Z,12.90
2022-12-23T06:23:34.111Z,15.60
2022-12-23T06:28:56.556Z,15.53
2022-12-23T06:34:19.400Z,11.93
2022-12-23T06:39:43.168Z,13.50
2022-12-23T06:45:06.326Z,13.80
2022-12-23T06:50:28.704Z,14.17
2022-12-23T06:55:59.793Z,10.90
2022-12-23T07:01:22.365Z,14.27
2022-12-23T07:06:44.857Z,12.80
2022-12-23T07:12:07.360Z,13.50
2022-12-23T07:17:29.562Z,11.33
2022-12-23T07:22:54.740Z,13.20
2022-12-23T07:28:16.977Z,10.17
2022-12-23T07:33:39.357Z,22.20
2022-12-23T07:39:01.882Z,23.90
2022-12-23T07:44:26.388Z,21.87
2022-12-23T07:49:48.522Z,19.90
2022-12-23T07:55:10.804Z,26.00
2022-12-23T08:00:33.486Z,25.83
2022-12-23T08:06:12.746Z,30.93
2022-12-23T08:11:35.079Z,28.23
2022-12-23T08:16:57.620Z,31.23
2022-12-23T08:22:20.101Z,32.33
2022-12-23T08:27:42.385Z,31.53
2022-12-23T08:33:06.888Z,32.87
2022-12-23T08:38:29.209Z,34.83
2022-12-23T08:43:51.915Z,38.33
2022-12-23T08:49:14.272Z,38.57
2022-12-23T08:54:36.764Z,36.73
2022-12-23T08:59:59.421Z,45.90
2022-12-23T09:05:24.766Z,39.23
2022-12-23T09:10:47.319Z,37.37
2022-12-23T09:16:10.562Z,41.50
2022-12-23T09:21:32.955Z,44.93
2022-12-23T09:26:55.524Z,39.40
2022-12-23T09:32:18.454Z,43.70
2022-12-23T09:37:40.680Z,42.63
2022-12-23T09:43:21.776Z,40.33
2022-12-23T09:48:56.851Z,43.77
2022-12-23T09:54:29.410Z,36.57
2022-12-23T10:00:29.781Z,40.47
2022-12-23T10:05:57.462Z,33.70
2022-12-23T10:11:29.388Z,33.87
2022-12-23T10:16:57.936Z,33.70
2022-12-23T10:22:28.403Z,40.53
2022-12-23T10:27:50.507Z,26.77
2022-12-23T10:33:15.725Z,30.23
2022-12-23T10:39:06.147Z,36.63
2022-12-23T10:44:31.505Z,33.53
2022-12-23T10:49:53.899Z,37.07
2022-12-23T10:55:29.830Z,38.30
2022-12-23T11:01:00.177Z,37.30
2022-12-23T11:06:23.383Z,32.33
2022-12-23T11:11:58.317Z,40.80
2022-12-23T11:17:23.409Z,31.63
2022-12-23T11:22:55.060Z,28.87
2022-12-23T11:28:22.179Z,30.60
2022-12-23T11:34:03.601Z,19.63
2022-12-23T11:39:35.072Z,20.50
2022-12-23T11:45:00.016Z,22.47
2022-12-23T11:50:36.939Z,21.40
2022-12-23T11:56:07.680Z,18.70
2022-12-23T12:01:30.623Z,22.80
2022-12-23T12:06:56.834Z,23.97
2022-12-23T12:12:21.816Z,26.03
2022-12-23T12:17:49.891Z,27.43
2022-12-23T12:23:21.743Z,24.13
2022-12-23T12:28:47.136Z,21.67
2022-12-23T12:34:46.902Z,20.63
2022-12-23T12:40:28.177Z,22.60
2022-12-23T12:46:08.833Z,22.00
2022-12-23T12:51:43.060Z,22.20
2022-12-23T12:57:05.674Z,19.90
2022-12-23T13:02:37.491Z,18.97
2022-12-23T13:08:33.469Z,20.43
2022-12-23T13:14:18.947Z,19.97
2022-12-23T13:19:41.412Z,22.20
2022-12-23T13:25:12.271Z,15.20
2022-12-23T13:30:44.004Z,24.90
2022-12-23T13:36:34.746Z,22.40
2022-12-23T13:42:05.051Z,18.37
2022-12-23T13:47:46.716Z,18.63
2022-12-23T13:53:25.013Z,17.40
2022-12-23T13:58:49.913Z,18.47
2022-12-23T14:04:34.101Z,15.57
2022-12-23T14:09:59.253Z,18.97
2022-12-23T14:15:48.222Z,16.20
2022-12-23T14:21:32.358Z,15.67
2022-12-23T14:27:12.988Z,14.63
2022-12-23T14:32:46.383Z,15.33
2022-12-23T14:38:14.584Z,14.43
2022-12-23T14:43:47.330Z,15.17
2022-12-23T14:49:39.472Z,14.03
2022-12-23T14:55:32.383Z,17.53
2022-12-23T15:01:15.388Z,19.63
2022-12-23T15:06:44.250Z,15.10
2022-12-23T15:12:14.164Z,19.63
2022-12-23T15:17:37.063Z,17.77
2022-12-23T15:23:07.927Z,15.80
2022-12-23T15:28:41.325Z,17.53
2022-12-23T15:34:17.128Z,18.33
2022-12-23T15:39:43.841Z,18.53
2022-12-23T15:45:36.644Z,17.30
2022-12-23T15:51:25.730Z,21.27
2022-12-23T15:57:00.414Z,18.57
2022-12-23T16:08:16.430Z,18.13
2022-12-23T16:13:44.755Z,19.30
2022-12-23T16:19:47.914Z,13.23
2022-12-23T16:25:23.069Z,14.83
2022-12-23T16:30:49.541Z,16.00
2022-12-23T16:36:27.824Z,16.27
2022-12-23T16:41:50.657Z,19.27
2022-12-23T16:47:17.448Z,14.77
2022-12-23T16:52:40.025Z,20.00
2022-12-23T16:58:02.493Z,14.63
2022-12-23T17:03:25.234Z,19.07
2022-12-23T17:08:48.665Z,18.07
2022-12-23T17:14:16.553Z,28.57
2022-12-23T17:19:38.937Z,53.80
2022-12-23T17:25:01.361Z,26.03
2022-12-23T17:30:25.378Z,37.03
2022-12-23T17:35:48.148Z,31.40
2022-12-23T17:41:31.251Z,41.03
2022-12-23T17:46:53.489Z,34.77
2022-12-23T17:52:18.512Z,25.77
2022-12-23T17:57:40.800Z,29.13
2022-12-23T18:03:05.843Z,27.93
2022-12-23T18:08:28.300Z,24.43
2022-12-23T18:13:52.763Z,41.07
2022-12-23T18:19:20.643Z,36.60
2022-12-23T18:24:43.865Z,29.70
2022-12-23T18:30:06.724Z,31.20
2022-12-23T18:35:39.923Z,35.13
2022-12-23T18:41:02.610Z,26.97
2022-12-23T18:46:25.460Z,29.03
2022-12-23T18:51:48.229Z,32.37
2022-12-23T18:57:11.187Z,26.10
2022-12-23T19:02:33.984Z,25.00
2022-12-23T19:07:57.949Z,37.23
2022-12-23T19:13:20.637Z,35.83
2022-12-23T19:18:46.016Z,37.47
2022-12-23T19:24:08.964Z,38.80
2022-12-23T19:29:31.384Z,29.23
2022-12-23T19:34:53.924Z,21.67
2022-12-23T19:40:17.158Z,25.30
2022-12-23T19:45:39.934Z,22.93
2022-12-23T19:51:10.424Z,22.57
2022-12-23T19:56:35.520Z,26.33
2022-12-23T20:01:58.971Z,25.33
2022-12-23T20:07:22.055Z,24.93
2022-12-23T20:12:45.168Z,25.83
2022-12-23T20:18:07.852Z,25.00
2022-12-23T20:23:31.411Z,27.40
2022-12-23T20:28:53.837Z,24.57
2022-12-23T20:34:17.597Z,28.17
2022-12-23T20:39:40.453Z,24.00
2022-12-23T20:45:02.624Z,18.20
2022-12-23T20:50:25.016Z,23.07
2022-12-23T20:55:47.629Z,24.93
2022-12-23T21:01:12.526Z,17.27
2022-12-23T21:06:36.260Z,18.10
2022-12-23T21:11:58.958Z,17.33
2022-12-23T21:17:21.348Z,16.77
2022-12-23T21:22:45.955Z,15.57
2022-12-23T21:28:08.486Z,14.73
2022-12-23T21:33:31.142Z,12.77
2022-12-23T21:38:53.504Z,15.07
2022-12-23T21:44:16.074Z,13.27
2022-12-23T21:49:38.355Z,15.73
2022-12-23T21:55:00.825Z,13.60
2022-12-23T22:00:23.143Z,16.77
2022-12-23T22:05:45.515Z,14.70
2022-12-23T22:11:10.427Z,13.27
2022-12-23T22:16:34.852Z,12.97
2022-12-23T22:21:57.427Z,11.63
2022-12-23T22:27:19.981Z,10.00
2022-12-23T22:32:42.854Z,11.57
2022-12-23T22:38:05.296Z,11.73
2022-12-23T22:43:27.737Z,12.80
2022-12-23T22:48:50.800Z,14.67
2022-12-23T22:54:13.587Z,12.13
2022-12-23T22:59:35.916Z,14.87
2022-12-23T23:04:58.403Z,12.83
2022-12-23T23:10:20.638Z,11.37
2022-12-23T23:15:48.107Z,12.30
2022-12-23T23:21:12.479Z,10.60
2022-12-23T23:26:35.019Z,11.60
2022-12-23T23:31:57.563Z,12.23
2022-12-23T23:37:20.155Z,8.80
2022-12-23T23:42:42.465Z,12.87
2022-12-23T23:48:05.044Z,9.07
2022-12-23T23:53:27.142Z,11.03
2022-12-23T23:58:49.360Z,7.17
